createdAt,value
2018-07-19T00:01:25.546Z,60.50
2018-07-19T00:03:55.809Z,60.40
2018-07-19T00:06:26.132Z,60.70
2018-07-19T00:08:56.528Z,60.90
2018-07-19T00:11:26.988Z,61.20
2018-07-19T00:13:57.397Z,61.30
2018-07-19T00:16:27.739Z,61.20
2018-07-19T00:18:58.066Z,61.40
2018-07-19T00:21:28.282Z,61.50
2018-07-19T00:23:58.580Z,61.90
2018-07-19T00:26:28.854Z,62.00
2018-07-19T00:28:59.164Z,62.00
2018-07-19T00:31:29.414Z,62.30
2018-07-19T00:33:59.790Z,61.80
2018-07-19T00:36:30.027Z,62.10
2018-07-19T00:39:00.346Z,62.30
2018-07-19T00:41:30.649Z,62.50
2018-07-19T00:44:01.055Z,62.90
2018-07-19T00:46:31.343Z,62.90
2018-07-19T00:49:01.650Z,62.50
2018-07-19T00:51:31.985Z,62.00
2018-07-19T00:54:02.292Z,61.80
2018-07-19T00:56:32.606Z,61.90
2018-07-19T00:59:02.941Z,62.00
2018-07-19T01:01:33.261Z,62.00
2018-07-19T01:04:03.616Z,61.70
2018-07-19T01:06:33.938Z,61.50
2018-07-19T01:09:07.060Z,61.20
2018-07-19T01:11:37.560Z,61.20
2018-07-19T01:14:08.513Z,60.90
2018-07-19T01:16:38.840Z,60.80
2018-07-19T01:19:09.205Z,61.20
2018-07-19T01:24:09.913Z,61.80
2018-07-19T01:26:40.174Z,62.20
2018-07-19T01:29:10.561Z,62.50
2018-07-19T01:31:40.856Z,62.20
2018-07-19T01:34:11.135Z,62.30
2018-07-19T01:36:41.744Z,62.50
2018-07-19T01:39:12.742Z,62.50
2018-07-19T01:42:29.705Z,62.70
2018-07-19T01:44:59.975Z,63.10
2018-07-19T01:47:30.358Z,63.20
2018-07-19T01:50:00.647Z,63.20
2018-07-19T01:52:30.952Z,63.70
2018-07-19T01:55:01.227Z,63.90
2018-07-19T01:57:31.526Z,64.00
2018-07-19T02:00:01.829Z,64.10
2018-07-19T02:02:32.163Z,64.10
2018-07-19T02:05:02.463Z,64.30
2018-07-19T02:07:36.022Z,64.30
2018-07-19T02:10:06.419Z,64.20
2018-07-19T02:12:36.766Z,64.00
2018-07-19T02:15:07.554Z,63.80
2018-07-19T02:17:37.833Z,63.70
2018-07-19T02:20:08.110Z,63.70
2018-07-19T02:22:38.411Z,63.70
2018-07-19T02:25:08.676Z,63.40
2018-07-19T02:27:38.977Z,63.20
2018-07-19T02:30:09.219Z,63.10
2018-07-19T02:32:39.514Z,63.10
2018-07-19T02:37:39.698Z,63.00
2018-07-19T02:40:09.987Z,63.20
2018-07-19T02:42:40.272Z,63.40
2018-07-19T02:45:10.522Z,63.70
2018-07-19T02:50:10.644Z,64.60
2018-07-19T02:52:40.963Z,64.80
2018-07-19T02:55:11.222Z,65.50
2018-07-19T02:57:41.551Z,64.90
2018-07-19T03:00:11.789Z,64.70
2018-07-19T03:02:42.104Z,64.40
2018-07-19T03:05:12.330Z,64.40
2018-07-19T03:07:42.735Z,64.20
2018-07-19T03:10:13.082Z,64.70
2018-07-19T03:12:43.541Z,63.80
2018-07-19T03:15:13.826Z,64.00
2018-07-19T03:17:44.362Z,64.00
2018-07-19T03:20:14.632Z,64.50
2018-07-19T03:25:14.868Z,64.70
2018-07-19T03:27:45.277Z,64.20
2018-07-19T03:30:15.590Z,64.00
2018-07-19T03:32:46.714Z,64.10
2018-07-19T03:35:16.989Z,64.40
2018-07-19T03:40:17.102Z,64.00
2018-07-19T03:42:47.338Z,63.80
2018-07-19T03:45:17.659Z,63.60
2018-07-19T03:47:47.893Z,63.60
2018-07-19T03:50:18.231Z,63.90
2018-07-19T03:52:48.479Z,64.10
2018-07-19T03:55:18.790Z,64.40
2018-07-19T03:57:49.067Z,64.60
2018-07-19T04:02:54.630Z,64.50
2018-07-19T04:05:28.409Z,64.40
2018-07-19T04:07:59.713Z,64.10
2018-07-19T04:10:30.173Z,65.00
2018-07-19T04:13:00.433Z,63.80
2018-07-19T04:15:30.789Z,63.60
2018-07-19T04:18:01.081Z,63.80
2018-07-19T04:23:02.357Z,64.30
2018-07-19T04:28:02.506Z,64.20
2018-07-19T04:30:32.803Z,64.20
2018-07-19T04:33:03.109Z,64.10
2018-07-19T04:35:33.450Z,64.20
2018-07-19T04:38:03.774Z,63.90
2018-07-19T04:40:34.098Z,64.00
2018-07-19T04:43:04.330Z,64.10
2018-07-19T04:45:34.695Z,64.30
2018-07-19T04:48:05.095Z,64.50
2018-07-19T04:50:35.387Z,64.80
2018-07-19T04:53:05.678Z,64.80
2018-07-19T04:55:36.001Z,64.30
2018-07-19T04:58:06.246Z,64.30
2018-07-19T05:00:36.533Z,64.20
2018-07-19T05:03:06.902Z,63.70
2018-07-19T05:05:37.652Z,63.20
2018-07-19T05:08:08.034Z,63.00
2018-07-19T05:10:38.462Z,62.70
2018-07-19T05:13:08.770Z,62.30
2018-07-19T05:15:39.080Z,62.30
2018-07-19T05:18:10.125Z,62.40
2018-07-19T05:20:40.950Z,62.70
2018-07-19T05:23:11.253Z,62.60
2018-07-19T05:25:41.589Z,62.70
2018-07-19T05:28:13.461Z,62.60
2018-07-19T05:30:45.378Z,62.50
2018-07-19T05:33:15.736Z,62.60
2018-07-19T05:35:46.146Z,62.00
2018-07-19T05:38:16.464Z,62.50
2018-07-19T05:40:46.810Z,62.40
2018-07-19T05:43:17.105Z,61.60
2018-07-19T05:45:47.967Z,61.40
2018-07-19T05:48:18.556Z,61.30
2018-07-19T05:50:48.898Z,60.90
2018-07-19T05:53:19.410Z,60.70
2018-07-19T05:55:50.034Z,59.90
2018-07-19T05:58:20.757Z,59.40
2018-07-19T06:00:52.039Z,58.90
2018-07-19T06:03:22.440Z,58.30
2018-07-19T06:05:53.036Z,57.80
2018-07-19T06:08:23.430Z,57.50
2018-07-19T06:10:54.521Z,56.60
2018-07-19T06:13:25.154Z,55.80
2018-07-19T06:15:55.817Z,55.50
2018-07-19T06:18:26.367Z,55.10
2018-07-19T06:20:56.814Z,54.20
2018-07-19T06:23:27.373Z,54.80
2018-07-19T06:25:58.302Z,54.00
2018-07-19T06:28:28.775Z,53.60
2018-07-19T06:30:59.159Z,52.20
2018-07-19T06:33:29.570Z,52.00
2018-07-19T06:36:00.109Z,51.20
2018-07-19T06:38:30.417Z,51.30
2018-07-19T06:41:00.730Z,48.50
2018-07-19T06:43:31.023Z,48.40
2018-07-19T06:46:01.393Z,46.80
2018-07-19T06:48:31.690Z,46.80
2018-07-19T06:51:02.073Z,48.40
2018-07-19T06:53:32.369Z,48.00
2018-07-19T06:56:03.002Z,45.10
2018-07-19T06:58:33.299Z,44.50
2018-07-19T07:01:03.685Z,43.50
2018-07-19T07:03:33.941Z,43.50
2018-07-19T07:06:04.478Z,42.40
2018-07-19T07:08:35.026Z,41.90
2018-07-19T07:11:05.894Z,40.90
2018-07-19T07:13:36.196Z,40.10
2018-07-19T07:16:06.908Z,39.20
2018-07-19T07:18:37.371Z,39.40
2018-07-19T07:21:07.750Z,38.90
2018-07-19T07:23:38.133Z,38.50
2018-07-19T07:26:08.497Z,38.20
2018-07-19T07:28:43.046Z,38.90
2018-07-19T07:31:13.303Z,39.10
2018-07-19T07:33:43.613Z,39.00
2018-07-19T07:36:13.974Z,39.50
2018-07-19T07:38:44.661Z,38.40
2018-07-19T07:41:25.908Z,38.70
2018-07-19T07:43:56.440Z,39.10
2018-07-19T07:46:26.702Z,37.30
2018-07-19T07:48:57.053Z,37.80
2018-07-19T07:51:27.350Z,37.60
2018-07-19T07:53:57.779Z,39.00
2018-07-19T07:56:28.054Z,37.80
2018-07-19T07:58:58.355Z,36.60
2018-07-19T08:01:28.788Z,36.20
2018-07-19T08:03:59.143Z,39.20
2018-07-19T08:06:29.454Z,36.00
2018-07-19T08:08:59.838Z,36.30
2018-07-19T08:11:30.323Z,35.40
2018-07-19T08:14:00.677Z,34.10
2018-07-19T08:16:31.005Z,34.20
2018-07-19T08:19:01.398Z,33.60
2018-07-19T08:21:31.677Z,34.00
2018-07-19T08:24:01.995Z,34.20
2018-07-19T08:26:32.286Z,34.50
2018-07-19T08:29:02.634Z,34.60
2018-07-19T08:31:32.918Z,36.80
2018-07-19T08:34:03.345Z,34.80
2018-07-19T08:36:33.657Z,34.40
2018-07-19T08:39:04.944Z,32.70
2018-07-19T08:41:35.197Z,32.50
2018-07-19T08:44:05.901Z,32.40
2018-07-19T08:46:36.939Z,32.10
2018-07-19T08:49:07.473Z,32.50
2018-07-19T08:51:38.136Z,30.60
2018-07-19T08:54:08.410Z,30.10
2018-07-19T08:56:38.935Z,30.50
2018-07-19T08:59:09.368Z,30.60
2018-07-19T09:01:39.740Z,29.80
2018-07-19T09:04:12.154Z,29.60
2018-07-19T09:06:45.503Z,31.40
2018-07-19T09:09:15.813Z,31.20
2018-07-19T09:11:46.143Z,31.00
2018-07-19T09:14:23.114Z,29.20
2018-07-19T09:16:53.863Z,28.50
2018-07-19T09:19:24.154Z,27.40
2018-07-19T09:21:54.471Z,28.00
2018-07-19T09:24:24.737Z,28.20
2018-07-19T09:26:55.107Z,27.90
2018-07-19T09:29:25.413Z,28.00
2018-07-19T09:31:55.746Z,29.30
2018-07-19T09:34:26.046Z,30.00
2018-07-19T09:36:56.328Z,30.20
2018-07-19T09:39:26.631Z,28.80
2018-07-19T09:41:57.014Z,27.80
2018-07-19T09:44:27.325Z,27.40
2018-07-19T09:46:57.622Z,27.40
2018-07-19T09:49:27.931Z,27.60
2018-07-19T09:51:58.251Z,26.60
2018-07-19T09:54:45.529Z,24.80
2018-07-19T09:57:15.821Z,25.50
2018-07-19T09:59:46.290Z,26.50
2018-07-19T10:02:16.619Z,25.50
2018-07-19T10:04:46.921Z,25.90
2018-07-19T10:07:17.245Z,23.10
2018-07-19T10:09:47.791Z,22.90
2018-07-19T10:12:18.257Z,26.00
2018-07-19T10:14:49.165Z,25.20
2018-07-19T10:17:19.564Z,26.10
2018-07-19T10:19:49.894Z,25.20
2018-07-19T10:22:20.187Z,24.80
2018-07-19T10:24:50.881Z,23.90
2018-07-19T10:27:21.174Z,23.40
2018-07-19T10:29:51.550Z,24.00
2018-07-19T10:32:21.959Z,23.90
2018-07-19T10:34:52.526Z,24.40
2018-07-19T10:37:22.867Z,21.20
2018-07-19T10:39:53.295Z,22.50
2018-07-19T10:42:23.694Z,22.80
2018-07-19T10:44:53.978Z,23.10
2018-07-19T10:47:24.318Z,21.70
2018-07-19T10:49:55.046Z,23.20
2018-07-19T10:52:25.614Z,22.10
2018-07-19T10:54:55.958Z,20.80
2018-07-19T10:57:26.938Z,21.20
2018-07-19T10:59:57.390Z,22.00
2018-07-19T11:02:27.656Z,21.00
2018-07-19T11:04:57.902Z,23.30
2018-07-19T11:07:28.224Z,21.10
2018-07-19T11:09:58.495Z,20.80
2018-07-19T11:12:28.763Z,22.80
2018-07-19T11:14:59.023Z,22.40
2018-07-19T11:17:31.586Z,21.10
2018-07-19T11:20:01.858Z,20.80
2018-07-19T11:22:32.206Z,21.50
2018-07-19T11:27:32.419Z,19.50
2018-07-19T11:30:02.651Z,20.30
2018-07-19T11:32:33.027Z,20.30
2018-07-19T11:35:03.501Z,20.90
2018-07-19T11:37:33.860Z,19.30
2018-07-19T11:40:04.150Z,19.80
2018-07-19T11:42:35.127Z,19.90
2018-07-19T11:45:05.751Z,19.50
2018-07-19T11:47:36.106Z,19.20
2018-07-19T11:50:06.873Z,20.00
2018-07-19T11:52:38.901Z,20.20
2018-07-19T11:58:16.386Z,21.30
2018-07-19T12:00:46.808Z,19.40
2018-07-19T12:06:01.416Z,20.30
2018-07-19T12:08:31.938Z,21.00
2018-07-19T12:11:02.199Z,19.80
2018-07-19T12:13:32.521Z,20.00
2018-07-19T12:16:02.791Z,18.90
2018-07-19T12:18:33.223Z,19.20
2018-07-19T12:21:03.556Z,19.30
2018-07-19T12:23:33.833Z,21.00
2018-07-19T12:26:04.106Z,19.40
2018-07-19T12:28:34.977Z,19.30
2018-07-19T12:31:05.724Z,19.10
2018-07-19T12:33:36.035Z,18.70
2018-07-19T12:36:06.958Z,18.50
2018-07-19T12:38:37.330Z,18.90
2018-07-19T12:41:07.898Z,18.80
2018-07-19T12:43:38.213Z,18.90
2018-07-19T12:48:38.394Z,18.40
2018-07-19T12:51:08.644Z,17.90
2018-07-19T12:53:39.249Z,17.80
2018-07-19T12:56:09.666Z,18.30
2018-07-19T12:58:40.022Z,18.20
2018-07-19T13:01:10.338Z,19.80
2018-07-19T13:03:40.794Z,19.90
2018-07-19T13:06:11.106Z,19.60
2018-07-19T13:08:41.361Z,18.30
2018-07-19T13:11:11.655Z,17.90
2018-07-19T13:13:42.081Z,17.50
2018-07-19T13:16:12.556Z,17.40
2018-07-19T13:18:42.918Z,18.00
2018-07-19T13:21:13.246Z,17.20
2018-07-19T13:23:43.554Z,17.10
2018-07-19T13:26:13.801Z,16.70
2018-07-19T13:28:44.082Z,17.00
2018-07-19T13:31:14.322Z,17.50
2018-07-19T13:33:44.835Z,17.40
2018-07-19T13:36:15.127Z,17.20
2018-07-19T13:38:45.410Z,16.70
2018-07-19T13:41:15.899Z,17.10
2018-07-19T13:43:46.208Z,16.60
2018-07-19T13:46:17.784Z,17.30
2018-07-19T13:48:48.082Z,17.00
2018-07-19T13:54:38.366Z,16.30
2018-07-19T13:57:08.736Z,16.80
2018-07-19T13:59:53.942Z,17.80
2018-07-19T14:02:24.287Z,18.10
2018-07-19T14:04:54.583Z,17.50
2018-07-19T14:07:24.905Z,16.30
2018-07-19T14:09:55.346Z,15.80
2018-07-19T14:12:25.840Z,16.80
2018-07-19T14:15:02.217Z,16.10
2018-07-19T14:17:32.536Z,15.90
2018-07-19T14:20:03.534Z,16.60
2018-07-19T14:22:35.641Z,15.80
2018-07-19T14:25:20.263Z,16.30
2018-07-19T14:27:50.754Z,16.40
2018-07-19T14:30:21.160Z,17.10
2018-07-19T14:32:53.975Z,16.30
2018-07-19T14:35:24.396Z,15.80
2018-07-19T14:37:54.934Z,16.20
2018-07-19T14:40:25.364Z,16.00
2018-07-19T14:42:56.199Z,15.80
2018-07-19T14:45:29.636Z,15.20
2018-07-19T14:48:02.142Z,16.90
2018-07-19T14:50:47.068Z,16.00
2018-07-19T14:53:18.589Z,16.20
2018-07-19T14:55:48.910Z,15.90
2018-07-19T14:58:22.025Z,16.10
2018-07-19T15:00:52.529Z,16.00
2018-07-19T15:03:23.202Z,16.60
2018-07-19T15:05:53.920Z,16.90
2018-07-19T15:08:24.228Z,17.10
2018-07-19T15:10:54.521Z,16.60
2018-07-19T15:13:25.107Z,16.40
2018-07-19T15:15:55.403Z,17.00
2018-07-19T15:18:25.770Z,17.00
2018-07-19T15:20:56.040Z,17.00
2018-07-19T15:23:26.350Z,17.50
2018-07-19T15:25:57.087Z,17.50
2018-07-19T15:28:27.470Z,17.00
2018-07-19T15:30:57.734Z,17.70
2018-07-19T15:33:28.047Z,17.90
2018-07-19T15:35:58.334Z,17.30
2018-07-19T15:38:28.613Z,17.00
2018-07-19T15:40:58.923Z,17.10
2018-07-19T15:43:29.406Z,17.90
2018-07-19T15:45:59.742Z,17.50
2018-07-19T15:48:30.018Z,17.10
2018-07-19T15:51:00.329Z,17.60
2018-07-19T15:53:30.615Z,16.60
2018-07-19T15:56:01.023Z,17.20
2018-07-19T15:58:31.329Z,17.30
2018-07-19T16:01:01.661Z,18.00
2018-07-19T16:03:31.919Z,18.10
2018-07-19T16:06:02.282Z,18.00
2018-07-19T16:08:33.130Z,17.90
2018-07-19T16:11:03.634Z,17.50
2018-07-19T16:13:33.909Z,17.50
2018-07-19T16:16:04.234Z,18.60
2018-07-19T16:18:34.511Z,18.20
2018-07-19T16:21:04.825Z,18.70
2018-07-19T16:23:35.102Z,18.60
2018-07-19T16:26:05.941Z,19.50
2018-07-19T16:28:36.379Z,19.00
2018-07-19T16:31:06.856Z,18.50
2018-07-19T16:33:37.326Z,19.30
2018-07-19T16:36:07.630Z,18.20
2018-07-19T16:41:08.337Z,18.10
2018-07-19T16:43:38.725Z,19.10
2018-07-19T16:46:09.131Z,19.00
2018-07-19T16:48:39.402Z,19.70
2018-07-19T16:51:09.749Z,21.60
2018-07-19T16:53:40.112Z,22.30
2018-07-19T16:56:10.482Z,21.10
2018-07-19T16:58:40.808Z,23.20
2018-07-19T17:01:11.120Z,22.80
2018-07-19T17:03:41.375Z,23.80
2018-07-19T17:06:12.432Z,23.60
2018-07-19T17:08:42.791Z,24.00
2018-07-19T17:11:13.074Z,24.70
2018-07-19T17:13:43.425Z,26.40
2018-07-19T17:16:13.695Z,25.90
2018-07-19T17:18:44.362Z,26.90
2018-07-19T17:21:14.770Z,27.40
2018-07-19T17:23:46.675Z,28.80
2018-07-19T17:26:17.005Z,30.00
2018-07-19T17:28:48.706Z,30.50
2018-07-19T17:31:19.263Z,30.50
2018-07-19T17:33:49.537Z,31.30
2018-07-19T17:36:19.858Z,32.00
2018-07-19T17:38:50.176Z,31.80
2018-07-19T17:41:20.625Z,31.60
2018-07-19T17:43:51.641Z,32.00
2018-07-19T17:46:22.053Z,33.00
2018-07-19T17:48:52.733Z,33.60
2018-07-19T17:51:23.189Z,34.30
2018-07-19T17:53:54.378Z,34.20
2018-07-19T17:56:24.789Z,33.40
2018-07-19T17:58:55.054Z,33.30
2018-07-19T18:01:34.101Z,34.10
2018-07-19T18:04:04.843Z,34.20
2018-07-19T18:06:35.174Z,35.20
2018-07-19T18:09:08.563Z,36.30
2018-07-19T18:11:39.239Z,38.20
2018-07-19T18:14:09.522Z,39.00
2018-07-19T18:16:39.907Z,39.50
2018-07-19T18:19:10.215Z,39.50
2018-07-19T18:21:40.569Z,38.90
2018-07-19T18:24:10.960Z,38.90
2018-07-19T18:26:41.365Z,39.60
2018-07-19T18:29:11.603Z,40.40
2018-07-19T18:31:41.894Z,40.60
2018-07-19T18:34:12.248Z,41.00
2018-07-19T18:36:42.851Z,39.80
2018-07-19T18:39:13.390Z,40.10
2018-07-19T18:41:43.959Z,41.30
2018-07-19T18:44:14.275Z,42.30
2018-07-19T18:46:45.237Z,42.40
2018-07-19T18:51:46.103Z,42.90
2018-07-19T18:54:16.430Z,43.20
2018-07-19T18:56:46.794Z,43.50
2018-07-19T18:59:17.148Z,44.10
2018-07-19T19:01:47.454Z,44.30
2018-07-19T19:04:17.741Z,44.10
2018-07-19T19:06:51.442Z,43.90
2018-07-19T19:09:21.742Z,43.90
2018-07-19T19:11:51.999Z,44.30
2018-07-19T19:14:23.630Z,45.10
2018-07-19T19:16:53.922Z,45.40
2018-07-19T19:19:24.306Z,45.50
2018-07-19T19:21:54.631Z,45.80
2018-07-19T19:24:24.923Z,46.10
2018-07-19T19:26:55.172Z,46.50
2018-07-19T19:29:25.839Z,46.60
2018-07-19T19:31:56.139Z,46.50
2018-07-19T19:34:26.513Z,46.40
2018-07-19T19:36:56.797Z,46.00
2018-07-19T19:39:27.110Z,46.40
2018-07-19T19:41:57.394Z,46.50
2018-07-19T19:44:29.770Z,46.70
2018-07-19T19:47:02.154Z,46.90
2018-07-19T19:49:32.466Z,47.50
2018-07-19T19:52:02.725Z,47.70
2018-07-19T19:54:33.081Z,47.90
2018-07-19T19:57:03.331Z,47.60
2018-07-19T19:59:33.637Z,47.30
2018-07-19T20:02:03.943Z,47.70
2018-07-19T20:04:34.492Z,47.80
2018-07-19T20:07:05.190Z,48.30
2018-07-19T20:09:36.031Z,49.10
2018-07-19T20:12:08.484Z,49.40
2018-07-19T20:14:38.935Z,49.30
2018-07-19T20:17:09.250Z,49.10
2018-07-19T20:19:39.974Z,49.20
2018-07-19T20:22:10.257Z,49.60
2018-07-19T20:24:41.336Z,49.70
2018-07-19T20:27:11.578Z,49.80
2018-07-19T20:29:42.019Z,49.60
2018-07-19T20:32:13.656Z,50.70
2018-07-19T20:34:44.708Z,50.80
2018-07-19T20:37:14.975Z,50.90
2018-07-19T20:39:45.604Z,51.10
2018-07-19T20:42:15.926Z,51.60
2018-07-19T20:44:46.244Z,51.70
2018-07-19T20:47:16.686Z,51.60
2018-07-19T20:49:47.109Z,52.00
2018-07-19T20:52:17.448Z,52.40
2018-07-19T20:54:47.728Z,52.90
2018-07-19T20:57:17.975Z,52.70
2018-07-19T20:59:48.221Z,52.80
2018-07-19T21:02:18.849Z,52.50
2018-07-19T21:04:49.352Z,53.20
2018-07-19T21:07:19.899Z,52.70
2018-07-19T21:12:20.442Z,52.90
2018-07-19T21:14:51.144Z,52.80
2018-07-19T21:17:21.474Z,52.50
2018-07-19T21:19:51.999Z,53.00
2018-07-19T21:22:22.440Z,52.70
2018-07-19T21:24:53.295Z,52.40
2018-07-19T21:27:23.665Z,52.80
2018-07-19T21:29:54.250Z,53.10
2018-07-19T21:32:24.653Z,53.10
2018-07-19T21:34:54.962Z,53.40
2018-07-19T21:37:25.739Z,53.70
2018-07-19T21:39:56.166Z,54.00
2018-07-19T21:42:28.542Z,53.90
2018-07-19T21:44:58.814Z,53.80
2018-07-19T21:47:29.705Z,54.30
2018-07-19T21:50:01.150Z,54.50
2018-07-19T21:52:32.738Z,54.80
2018-07-19T21:55:08.450Z,54.70
2018-07-19T21:57:41.188Z,54.90
2018-07-19T22:00:13.246Z,55.00
2018-07-19T22:02:44.893Z,54.60
2018-07-19T22:05:15.830Z,54.40
2018-07-19T22:07:46.806Z,54.20
2018-07-19T22:10:18.407Z,54.70
2018-07-19T22:12:49.727Z,56.10
2018-07-19T22:15:21.134Z,55.30
2018-07-19T22:17:52.031Z,55.30
2018-07-19T22:20:24.255Z,55.10
2018-07-19T22:22:55.742Z,55.30
2018-07-19T22:25:27.192Z,55.00
2018-07-19T22:27:58.170Z,55.60
2018-07-19T22:30:29.437Z,55.80
2018-07-19T22:33:00.278Z,55.80
2018-07-19T22:35:31.657Z,56.20
2018-07-19T22:38:03.028Z,55.80
2018-07-19T22:40:34.987Z,56.00
2018-07-19T22:43:06.152Z,55.60
2018-07-19T22:45:37.366Z,55.80
2018-07-19T22:48:08.901Z,55.60
2018-07-19T22:50:40.667Z,55.70
2018-07-19T22:53:11.776Z,55.50
2018-07-19T22:55:43.016Z,55.20
2018-07-19T22:58:14.333Z,55.20
2018-07-19T23:00:45.923Z,55.50
2018-07-19T23:03:16.546Z,55.70
2018-07-19T23:05:48.566Z,55.80
2018-07-19T23:08:21.460Z,55.90
2018-07-19T23:10:54.834Z,55.60
2018-07-19T23:13:26.006Z,55.80
2018-07-19T23:15:57.631Z,55.70
2018-07-19T23:18:29.377Z,55.80
2018-07-19T23:21:00.699Z,55.60
2018-07-19T23:23:31.943Z,55.20
2018-07-19T23:26:03.011Z,55.10
2018-07-19T23:31:03.266Z,55.10
2018-07-19T23:33:33.606Z,55.10
2018-07-19T23:36:07.621Z,55.10
2018-07-19T23:38:48.276Z,55.10
2018-07-19T23:41:23.777Z,54.90
2018-07-19T23:43:58.196Z,55.00
2018-07-19T23:46:34.640Z,55.20
2018-07-19T23:49:07.751Z,54.90
2018-07-19T23:51:39.078Z,55.10
2018-07-19T23:54:09.457Z,55.10
2018-07-19T23:56:39.913Z,54.90
2018-07-19T23:59:10.301Z,55.20
